sensor_id;sensor_type;location;lat;lon;timestamp;temperature;humidity
69938;DHT22;57248;47.320;15.998;2023-04-19T00:01:00;9.90;75.45
69938;DHT22;57248;47.320;15.998;2023-04-19T00:03:34;10.25;73.07
69938;DHT22;57248;47.320;15.998;2023-04-19T00:06:00;10.19;73.34
69938;DHT22;57248;47.320;15.998;2023-04-19T00:08:33;10.21;73.25
69938;DHT22;57248;47.320;15.998;2023-04-19T00:11:04;10.29;72.45
69938;DHT22;57248;47.320;15.998;2023-04-19T00:13:37;10.33;72.54
69938;DHT22;57248;47.320;15.998;2023-04-19T00:16:08;10.26;73.48
69938;DHT22;57248;47.320;15.998;2023-04-19T00:18:41;10.36;72.52
69938;DHT22;57248;47.320;15.998;2023-04-19T00:21:14;10.22;73.76
69938;DHT22;57248;47.320;15.998;2023-04-19T00:23:45;10.16;74.04
69938;DHT22;57248;47.320;15.998;2023-04-19T00:26:18;10.11;73.94
69938;DHT22;57248;47.320;15.998;2023-04-19T00:28:50;10.04;74.16
69938;DHT22;57248;47.320;15.998;2023-04-19T00:31:16;10.06;73.60
69938;DHT22;57248;47.320;15.998;2023-04-19T00:33:48;10.02;74.14
69938;DHT22;57248;47.320;15.998;2023-04-19T00:36:20;9.90;74.87
69938;DHT22;57248;47.320;15.998;2023-04-19T00:38:46;9.87;75.44
69938;DHT22;57248;47.320;15.998;2023-04-19T00:41:17;9.74;76.54
69938;DHT22;57248;47.320;15.998;2023-04-19T00:43:51;9.54;77.97
69938;DHT22;57248;47.320;15.998;2023-04-19T00:46:23;9.60;77.51
69938;DHT22;57248;47.320;15.998;2023-04-19T00:48:58;9.55;77.55
69938;DHT22;57248;47.320;15.998;2023-04-19T00:51:31;9.44;78.38
69938;DHT22;57248;47.320;15.998;2023-04-19T00:53:57;9.30;78.85
69938;DHT22;57248;47.320;15.998;2023-04-19T00:56:29;9.40;78.62
69938;DHT22;57248;47.320;15.998;2023-04-19T00:59:09;9.26;79.41
69938;DHT22;57248;47.320;15.998;2023-04-19T01:01:41;9.46;77.08
69938;DHT22;57248;47.320;15.998;2023-04-19T01:04:14;9.33;78.42
69938;DHT22;57248;47.320;15.998;2023-04-19T01:06:47;9.33;77.78
69938;DHT22;57248;47.320;15.998;2023-04-19T01:09:19;9.36;77.61
69938;DHT22;57248;47.320;15.998;2023-04-19T01:11:51;8.95;81.32
69938;DHT22;57248;47.320;15.998;2023-04-19T01:14:23;8.86;81.59
69938;DHT22;57248;47.320;15.998;2023-04-19T01:16:56;8.76;82.81
69938;DHT22;57248;47.320;15.998;2023-04-19T01:19:28;8.78;82.87
69938;DHT22;57248;47.320;15.998;2023-04-19T01:22:00;8.58;83.57
69938;DHT22;57248;47.320;15.998;2023-04-19T01:24:36;8.64;83.47
69938;DHT22;57248;47.320;15.998;2023-04-19T01:27:08;8.54;83.68
69938;DHT22;57248;47.320;15.998;2023-04-19T01:29:40;8.45;84.02
69938;DHT22;57248;47.320;15.998;2023-04-19T01:32:12;8.31;84.85
69938;DHT22;57248;47.320;15.998;2023-04-19T01:34:44;8.17;85.77
69938;DHT22;57248;47.320;15.998;2023-04-19T01:37:16;8.22;84.95
69938;DHT22;57248;47.320;15.998;2023-04-19T01:39:48;8.12;85.70
69938;DHT22;57248;47.320;15.998;2023-04-19T01:42:20;7.99;86.84
69938;DHT22;57248;47.320;15.998;2023-04-19T01:44:52;8.10;85.01
69938;DHT22;57248;47.320;15.998;2023-04-19T01:47:25;8.10;85.33
69938;DHT22;57248;47.320;15.998;2023-04-19T01:49:58;8.19;84.74
69938;DHT22;57248;47.320;15.998;2023-04-19T01:52:23;8.22;84.66
69938;DHT22;57248;47.320;15.998;2023-04-19T01:54:56;8.13;85.38
69938;DHT22;57248;47.320;15.998;2023-04-19T01:57:28;8.19;84.64
69938;DHT22;57248;47.320;15.998;2023-04-19T02:00:08;8.12;85.17
69938;DHT22;57248;47.320;15.998;2023-04-19T02:02:40;8.06;85.11
69938;DHT22;57248;47.320;15.998;2023-04-19T02:05:14;8.06;85.39
69938;DHT22;57248;47.320;15.998;2023-04-19T02:07:50;7.99;85.29
69938;DHT22;57248;47.320;15.998;2023-04-19T02:10:15;7.93;85.55
69938;DHT22;57248;47.320;15.998;2023-04-19T02:12:47;7.89;86.11
69938;DHT22;57248;47.320;15.998;2023-04-19T02:15:19;7.81;86.98
69938;DHT22;57248;47.320;15.998;2023-04-19T02:17:51;7.69;87.14
69938;DHT22;57248;47.320;15.998;2023-04-19T02:20:23;7.65;87.34
69938;DHT22;57248;47.320;15.998;2023-04-19T02:22:55;7.66;87.36
69938;DHT22;57248;47.320;15.998;2023-04-19T02:25:27;7.63;87.23
69938;DHT22;57248;47.320;15.998;2023-04-19T02:27:59;7.71;86.93
69938;DHT22;57248;47.320;15.998;2023-04-19T02:30:31;7.41;88.62
69938;DHT22;57248;47.320;15.998;2023-04-19T02:33:03;7.40;88.38
69938;DHT22;57248;47.320;15.998;2023-04-19T02:35:35;7.52;87.42
69938;DHT22;57248;47.320;15.998;2023-04-19T02:38:07;7.44;87.94
69938;DHT22;57248;47.320;15.998;2023-04-19T02:40:32;7.38;87.86
69938;DHT22;57248;47.320;15.998;2023-04-19T02:43:04;7.03;89.80
69938;DHT22;57248;47.320;15.998;2023-04-19T02:45:36;7.05;89.50
69938;DHT22;57248;47.320;15.998;2023-04-19T02:48:08;6.93;90.43
69938;DHT22;57248;47.320;15.998;2023-04-19T02:50:40;6.96;90.15
69938;DHT22;57248;47.320;15.998;2023-04-19T02:53:12;7.00;89.34
69938;DHT22;57248;47.320;15.998;2023-04-19T02:55:45;7.04;89.24
69938;DHT22;57248;47.320;15.998;2023-04-19T02:58:25;7.03;89.00
69938;DHT22;57248;47.320;15.998;2023-04-19T03:01:02;6.92;89.30
69938;DHT22;57248;47.320;15.998;2023-04-19T03:03:35;6.93;89.09
69938;DHT22;57248;47.320;15.998;2023-04-19T03:06:07;6.73;90.15
69938;DHT22;57248;47.320;15.998;2023-04-19T03:08:40;6.77;89.63
69938;DHT22;57248;47.320;15.998;2023-04-19T03:11:14;6.71;89.44
69938;DHT22;57248;47.320;15.998;2023-04-19T03:13:40;6.75;89.53
69938;DHT22;57248;47.320;15.998;2023-04-19T03:16:13;6.77;88.85
69938;DHT22;57248;47.320;15.998;2023-04-19T03:18:45;6.55;90.38
69938;DHT22;57248;47.320;15.998;2023-04-19T03:21:11;6.55;90.00
69938;DHT22;57248;47.320;15.998;2023-04-19T03:23:48;6.49;90.09
69938;DHT22;57248;47.320;15.998;2023-04-19T03:26:21;6.52;90.00
69938;DHT22;57248;47.320;15.998;2023-04-19T03:28:55;6.50;89.70
69938;DHT22;57248;47.320;15.998;2023-04-19T03:31:50;6.46;90.44
69938;DHT22;57248;47.320;15.998;2023-04-19T03:34:23;6.29;91.20
69938;DHT22;57248;47.320;15.998;2023-04-19T03:36:48;6.29;91.20
69938;DHT22;57248;47.320;15.998;2023-04-19T03:39:21;6.35;90.83
69938;DHT22;57248;47.320;15.998;2023-04-19T03:41:58;6.38;89.87
69938;DHT22;57248;47.320;15.998;2023-04-19T03:44:54;6.08;90.97
69938;DHT22;57248;47.320;15.998;2023-04-19T03:47:28;6.12;90.51
69938;DHT22;57248;47.320;15.998;2023-04-19T03:50:00;6.15;91.14
69938;DHT22;57248;47.320;15.998;2023-04-19T03:52:33;6.18;90.99
69938;DHT22;57248;47.320;15.998;2023-04-19T03:55:05;6.22;90.36
69938;DHT22;57248;47.320;15.998;2023-04-19T03:57:39;6.17;90.64
69938;DHT22;57248;47.320;15.998;2023-04-19T04:00:35;6.18;90.45
69938;DHT22;57248;47.320;15.998;2023-04-19T04:03:08;6.00;92.37
69938;DHT22;57248;47.320;15.998;2023-04-19T04:05:40;6.15;91.59
69938;DHT22;57248;47.320;15.998;2023-04-19T04:08:13;6.22;91.43
69938;DHT22;57248;47.320;15.998;2023-04-19T04:10:46;6.11;92.06
69938;DHT22;57248;47.320;15.998;2023-04-19T04:13:20;5.95;93.12
69938;DHT22;57248;47.320;15.998;2023-04-19T04:16:04;6.11;92.64
69938;DHT22;57248;47.320;15.998;2023-04-19T04:18:36;6.25;91.90
69938;DHT22;57248;47.320;15.998;2023-04-19T04:21:13;6.12;92.90
69938;DHT22;57248;47.320;15.998;2023-04-19T04:23:46;6.35;91.86
69938;DHT22;57248;47.320;15.998;2023-04-19T04:26:28;6.55;90.39
69938;DHT22;57248;47.320;15.998;2023-04-19T04:29:12;6.66;90.64
69938;DHT22;57248;47.320;15.998;2023-04-19T04:31:48;6.71;90.33
69938;DHT22;57248;47.320;15.998;2023-04-19T04:34:24;6.73;90.76
69938;DHT22;57248;47.320;15.998;2023-04-19T04:37:04;6.83;90.82
69938;DHT22;57248;47.320;15.998;2023-04-19T04:39:37;6.93;90.32
69938;DHT22;57248;47.320;15.998;2023-04-19T04:42:10;7.03;89.90
69938;DHT22;57248;47.320;15.998;2023-04-19T04:44:44;7.01;90.33
69938;DHT22;57248;47.320;15.998;2023-04-19T04:47:19;7.01;89.99
69938;DHT22;57248;47.320;15.998;2023-04-19T04:49:53;7.28;89.45
69938;DHT22;57248;47.320;15.998;2023-04-19T04:52:26;7.27;89.54
69938;DHT22;57248;47.320;15.998;2023-04-19T04:55:10;7.30;88.78
69938;DHT22;57248;47.320;15.998;2023-04-19T04:57:43;7.35;88.43
69938;DHT22;57248;47.320;15.998;2023-04-19T05:00:46;7.48;87.82
69938;DHT22;57248;47.320;15.998;2023-04-19T05:03:19;7.62;87.58
69938;DHT22;57248;47.320;15.998;2023-04-19T05:05:56;7.72;87.17
69938;DHT22;57248;47.320;15.998;2023-04-19T05:08:43;7.85;87.50
69938;DHT22;57248;47.320;15.998;2023-04-19T05:11:24;7.97;87.69
69938;DHT22;57248;47.320;15.998;2023-04-19T05:13:57;7.94;87.13
69938;DHT22;57248;47.320;15.998;2023-04-19T05:16:31;8.06;87.15
69938;DHT22;57248;47.320;15.998;2023-04-19T05:19:03;8.27;86.10
69938;DHT22;57248;47.320;15.998;2023-04-19T05:21:40;8.40;86.18
69938;DHT22;57248;47.320;15.998;2023-04-19T05:24:14;8.54;85.62
69938;DHT22;57248;47.320;15.998;2023-04-19T05:26:46;8.58;86.27
69938;DHT22;57248;47.320;15.998;2023-04-19T05:29:18;9.32;86.65
69938;DHT22;57248;47.320;15.998;2023-04-19T05:31:56;9.02;85.96
69938;DHT22;57248;47.320;15.998;2023-04-19T05:34:31;8.96;85.20
69938;DHT22;57248;47.320;15.998;2023-04-19T05:37:04;9.19;84.63
69938;DHT22;57248;47.320;15.998;2023-04-19T05:39:36;9.19;83.88
69938;DHT22;57248;47.320;15.998;2023-04-19T05:42:08;9.47;83.21
69938;DHT22;57248;47.320;15.998;2023-04-19T05:44:41;9.67;81.88
69938;DHT22;57248;47.320;15.998;2023-04-19T05:47:13;9.54;81.64
69938;DHT22;57248;47.320;15.998;2023-04-19T05:50:15;9.78;82.73
69938;DHT22;57248;47.320;15.998;2023-04-19T05:53:10;9.71;83.17
69938;DHT22;57248;47.320;15.998;2023-04-19T05:55:43;9.88;83.37
69938;DHT22;57248;47.320;15.998;2023-04-19T05:58:17;9.84;83.33
69938;DHT22;57248;47.320;15.998;2023-04-19T06:01:05;9.95;82.82
69938;DHT22;57248;47.320;15.998;2023-04-19T06:03:38;10.09;82.58
69938;DHT22;57248;47.320;15.998;2023-04-19T06:06:11;10.05;83.26
69938;DHT22;57248;47.320;15.998;2023-04-19T06:08:43;10.18;82.62
69938;DHT22;57248;47.320;15.998;2023-04-19T06:11:15;10.26;82.53
69938;DHT22;57248;47.320;15.998;2023-04-19T06:13:47;10.46;82.51
69938;DHT22;57248;47.320;15.998;2023-04-19T06:16:12;10.59;81.67
69938;DHT22;57248;47.320;15.998;2023-04-19T06:18:45;10.93;81.07
69938;DHT22;57248;47.320;15.998;2023-04-19T06:21:17;10.99;80.79
69938;DHT22;57248;47.320;15.998;2023-04-19T06:23:49;11.03;80.95
69938;DHT22;57248;47.320;15.998;2023-04-19T06:26:21;11.20;79.74
69938;DHT22;57248;47.320;15.998;2023-04-19T06:28:53;11.41;78.99
69938;DHT22;57248;47.320;15.998;2023-04-19T06:31:25;11.27;79.88
69938;DHT22;57248;47.320;15.998;2023-04-19T06:33:57;11.39;79.83
69938;DHT22;57248;47.320;15.998;2023-04-19T06:36:29;11.18;80.95
69938;DHT22;57248;47.320;15.998;2023-04-19T06:39:01;11.57;79.44
69938;DHT22;57248;47.320;15.998;2023-04-19T06:41:33;11.57;79.67
69938;DHT22;57248;47.320;15.998;2023-04-19T06:44:05;11.45;80.01
69938;DHT22;57248;47.320;15.998;2023-04-19T06:46:37;11.71;79.20
69938;DHT22;57248;47.320;15.998;2023-04-19T06:49:02;12.38;77.04
69938;DHT22;57248;47.320;15.998;2023-04-19T06:51:34;12.54;77.98
69938;DHT22;57248;47.320;15.998;2023-04-19T06:54:06;12.48;78.25
69938;DHT22;57248;47.320;15.998;2023-04-19T06:59:16;12.23;75.03
69938;DHT22;57248;47.320;15.998;2023-04-19T07:01:59;12.36;75.18
69938;DHT22;57248;47.320;15.998;2023-04-19T07:04:31;12.47;75.92
69938;DHT22;57248;47.320;15.998;2023-04-19T07:07:03;12.81;74.33
69938;DHT22;57248;47.320;15.998;2023-04-19T07:09:28;12.98;72.61
69938;DHT22;57248;47.320;15.998;2023-04-19T07:12:01;12.77;73.39
69938;DHT22;57248;47.320;15.998;2023-04-19T07:14:33;12.99;72.38
69938;DHT22;57248;47.320;15.998;2023-04-19T07:17:05;12.68;73.47
69938;DHT22;57248;47.320;15.998;2023-04-19T07:19:37;12.89;72.85
69938;DHT22;57248;47.320;15.998;2023-04-19T07:22:09;13.54;72.05
69938;DHT22;57248;47.320;15.998;2023-04-19T07:24:41;13.42;71.04
69938;DHT22;57248;47.320;15.998;2023-04-19T07:27:15;13.50;70.30
69938;DHT22;57248;47.320;15.998;2023-04-19T07:29:47;13.90;67.57
69938;DHT22;57248;47.320;15.998;2023-04-19T07:32:19;13.81;66.75
69938;DHT22;57248;47.320;15.998;2023-04-19T07:34:51;13.36;66.78
69938;DHT22;57248;47.320;15.998;2023-04-19T07:37:24;13.40;67.23
69938;DHT22;57248;47.320;15.998;2023-04-19T07:39:56;13.71;68.21
69938;DHT22;57248;47.320;15.998;2023-04-19T07:42:28;13.78;67.89
69938;DHT22;57248;47.320;15.998;2023-04-19T07:45:02;13.42;67.61
69938;DHT22;57248;47.320;15.998;2023-04-19T07:47:34;13.60;67.18
69938;DHT22;57248;47.320;15.998;2023-04-19T07:50:06;13.90;66.47
69938;DHT22;57248;47.320;15.998;2023-04-19T07:52:39;14.11;66.78
69938;DHT22;57248;47.320;15.998;2023-04-19T07:55:12;13.81;67.07
69938;DHT22;57248;47.320;15.998;2023-04-19T07:57:44;13.91;68.09
69938;DHT22;57248;47.320;15.998;2023-04-19T08:00:26;14.21;67.68
69938;DHT22;57248;47.320;15.998;2023-04-19T08:03:00;13.97;66.81
69938;DHT22;57248;47.320;15.998;2023-04-19T08:05:32;13.57;67.86
69938;DHT22;57248;47.320;15.998;2023-04-19T08:08:05;14.08;66.83
69938;DHT22;57248;47.320;15.998;2023-04-19T08:10:37;14.36;67.86
69938;DHT22;57248;47.320;15.998;2023-04-19T08:13:02;14.55;66.48
69938;DHT22;57248;47.320;15.998;2023-04-19T08:15:34;14.29;66.86
69938;DHT22;57248;47.320;15.998;2023-04-19T08:18:06;14.18;67.93
69938;DHT22;57248;47.320;15.998;2023-04-19T08:20:39;13.64;68.41
69938;DHT22;57248;47.320;15.998;2023-04-19T08:23:13;13.87;68.24
69938;DHT22;57248;47.320;15.998;2023-04-19T08:25:45;13.90;68.58
69938;DHT22;57248;47.320;15.998;2023-04-19T08:28:17;13.39;69.62
69938;DHT22;57248;47.320;15.998;2023-04-19T08:30:50;13.10;70.48
69938;DHT22;57248;47.320;15.998;2023-04-19T08:33:22;13.24;70.67
69938;DHT22;57248;47.320;15.998;2023-04-19T08:35:47;12.99;71.49
69938;DHT22;57248;47.320;15.998;2023-04-19T08:38:20;12.99;71.63
69938;DHT22;57248;47.320;15.998;2023-04-19T08:40:53;12.95;72.31
69938;DHT22;57248;47.320;15.998;2023-04-19T08:43:29;12.98;72.26
69938;DHT22;57248;47.320;15.998;2023-04-19T08:46:04;12.84;72.12
69938;DHT22;57248;47.320;15.998;2023-04-19T08:48:37;13.32;72.20
69938;DHT22;57248;47.320;15.998;2023-04-19T08:51:11;13.18;71.44
69938;DHT22;57248;47.320;15.998;2023-04-19T08:53:38;13.82;70.34
69938;DHT22;57248;47.320;15.998;2023-04-19T08:56:11;13.97;68.09
69938;DHT22;57248;47.320;15.998;2023-04-19T08:58:43;14.07;70.03
69938;DHT22;57248;47.320;15.998;2023-04-19T09:01:22;13.73;70.38
69938;DHT22;57248;47.320;15.998;2023-04-19T09:03:54;13.70;72.30
69938;DHT22;57248;47.320;15.998;2023-04-19T09:06:26;13.57;71.06
69938;DHT22;57248;47.320;15.998;2023-04-19T09:09:21;13.61;70.54
69938;DHT22;57248;47.320;15.998;2023-04-19T09:11:54;13.42;70.11
69938;DHT22;57248;47.320;15.998;2023-04-19T09:14:27;13.26;71.03
69938;DHT22;57248;47.320;15.998;2023-04-19T09:17:15;13.15;72.50
69938;DHT22;57248;47.320;15.998;2023-04-19T09:19:48;12.98;73.73
69938;DHT22;57248;47.320;15.998;2023-04-19T09:22:20;12.69;74.91
69938;DHT22;57248;47.320;15.998;2023-04-19T09:24:52;12.89;75.63
69938;DHT22;57248;47.320;15.998;2023-04-19T09:27:26;12.78;74.58
69938;DHT22;57248;47.320;15.998;2023-04-19T09:30:05;13.10;75.36
69938;DHT22;57248;47.320;15.998;2023-04-19T09:32:47;13.85;73.55
69938;DHT22;57248;47.320;15.998;2023-04-19T09:35:19;14.32;71.33
69938;DHT22;57248;47.320;15.998;2023-04-19T09:37:58;14.84;69.09
69938;DHT22;57248;47.320;15.998;2023-04-19T09:40:31;16.20;66.49
69938;DHT22;57248;47.320;15.998;2023-04-19T09:43:03;16.74;63.30
69938;DHT22;57248;47.320;15.998;2023-04-19T09:45:42;17.22;61.05
69938;DHT22;57248;47.320;15.998;2023-04-19T09:48:15;17.81;60.54
69938;DHT22;57248;47.320;15.998;2023-04-19T09:51:00;18.34;56.83
69938;DHT22;57248;47.320;15.998;2023-04-19T09:53:32;17.88;59.17
69938;DHT22;57248;47.320;15.998;2023-04-19T09:56:06;17.49;60.76
69938;DHT22;57248;47.320;15.998;2023-04-19T09:58:45;17.54;60.26
69938;DHT22;57248;47.320;15.998;2023-04-19T10:01:18;16.99;63.57
69938;DHT22;57248;47.320;15.998;2023-04-19T10:03:59;17.71;60.29
69938;DHT22;57248;47.320;15.998;2023-04-19T10:06:25;17.30;62.09
69938;DHT22;57248;47.320;15.998;2023-04-19T10:09:00;17.97;62.95
69938;DHT22;57248;47.320;15.998;2023-04-19T10:11:36;18.00;62.74
69938;DHT22;57248;47.320;15.998;2023-04-19T10:14:09;18.86;56.41
69938;DHT22;57248;47.320;15.998;2023-04-19T10:16:42;19.32;57.32
69938;DHT22;57248;47.320;15.998;2023-04-19T10:19:13;19.10;56.70
69938;DHT22;57248;47.320;15.998;2023-04-19T10:21:47;18.22;56.89
69938;DHT22;57248;47.320;15.998;2023-04-19T10:24:20;17.63;60.98
69938;DHT22;57248;47.320;15.998;2023-04-19T10:32:23;18.79;56.02
69938;DHT22;57248;47.320;15.998;2023-04-19T10:35:01;18.70;56.38
69938;DHT22;57248;47.320;15.998;2023-04-19T10:37:39;18.01;59.24
69938;DHT22;57248;47.320;15.998;2023-04-19T10:43:32;17.25;60.77
69938;DHT22;57248;47.320;15.998;2023-04-19T10:51:37;17.77;60.66
69938;DHT22;57248;47.320;15.998;2023-04-19T10:54:31;18.21;59.36
69938;DHT22;57248;47.320;15.998;2023-04-19T10:57:05;17.69;62.70
69938;DHT22;57248;47.320;15.998;2023-04-19T11:00:20;17.53;62.66
69938;DHT22;57248;47.320;15.998;2023-04-19T11:02:52;17.62;63.14
69938;DHT22;57248;47.320;15.998;2023-04-19T11:05:24;17.22;62.92
69938;DHT22;57248;47.320;15.998;2023-04-19T11:07:56;17.69;63.37
69938;DHT22;57248;47.320;15.998;2023-04-19T11:10:29;17.53;60.36
69938;DHT22;57248;47.320;15.998;2023-04-19T11:13:02;17.35;60.97
69938;DHT22;57248;47.320;15.998;2023-04-19T11:15:34;16.92;61.99
69938;DHT22;57248;47.320;15.998;2023-04-19T11:18:19;16.63;62.81
69938;DHT22;57248;47.320;15.998;2023-04-19T11:20:52;17.12;60.82
69938;DHT22;57248;47.320;15.998;2023-04-19T11:23:25;16.37;63.31
69938;DHT22;57248;47.320;15.998;2023-04-19T11:25:57;16.55;61.86
69938;DHT22;57248;47.320;15.998;2023-04-19T11:28:32;16.24;64.34
69938;DHT22;57248;47.320;15.998;2023-04-19T11:31:05;16.17;64.54
69938;DHT22;57248;47.320;15.998;2023-04-19T11:33:37;16.54;65.51
69938;DHT22;57248;47.320;15.998;2023-04-19T11:36:10;16.63;62.20
69938;DHT22;57248;47.320;15.998;2023-04-19T11:38:47;16.68;61.20
69938;DHT22;57248;47.320;15.998;2023-04-19T11:41:12;16.85;59.42
69938;DHT22;57248;47.320;15.998;2023-04-19T11:43:45;17.73;57.80
69938;DHT22;57248;47.320;15.998;2023-04-19T11:46:17;17.19;58.76
69938;DHT22;57248;47.320;15.998;2023-04-19T11:48:50;16.89;57.28
69938;DHT22;57248;47.320;15.998;2023-04-19T11:51:23;17.63;57.27
69938;DHT22;57248;47.320;15.998;2023-04-19T11:53:55;18.36;54.87
69938;DHT22;57248;47.320;15.998;2023-04-19T11:56:27;18.15;57.24
69938;DHT22;57248;47.320;15.998;2023-04-19T11:59:00;18.76;56.02
69938;DHT22;57248;47.320;15.998;2023-04-19T12:01:46;17.75;56.62
69938;DHT22;57248;47.320;15.998;2023-04-19T12:04:19;16.78;58.83
69938;DHT22;57248;47.320;15.998;2023-04-19T12:06:58;17.37;59.06
69938;DHT22;57248;47.320;15.998;2023-04-19T12:09:32;17.08;61.02
69938;DHT22;57248;47.320;15.998;2023-04-19T12:12:05;16.99;60.62
69938;DHT22;57248;47.320;15.998;2023-04-19T12:14:37;16.74;61.91
69938;DHT22;57248;47.320;15.998;2023-04-19T12:17:11;16.89;60.74
69938;DHT22;57248;47.320;15.998;2023-04-19T12:19:45;16.98;59.68
69938;DHT22;57248;47.320;15.998;2023-04-19T12:22:19;17.01;60.46
69938;DHT22;57248;47.320;15.998;2023-04-19T12:24:53;17.87;57.18
69938;DHT22;57248;47.320;15.998;2023-04-19T12:27:26;17.62;58.45
69938;DHT22;57248;47.320;15.998;2023-04-19T12:29:58;17.80;58.07
69938;DHT22;57248;47.320;15.998;2023-04-19T12:32:30;17.60;60.17
69938;DHT22;57248;47.320;15.998;2023-04-19T12:34:55;17.59;58.52
69938;DHT22;57248;47.320;15.998;2023-04-19T12:37:28;17.60;59.53
69938;DHT22;57248;47.320;15.998;2023-04-19T12:40:00;17.37;60.14
69938;DHT22;57248;47.320;15.998;2023-04-19T12:42:32;17.69;57.77
69938;DHT22;57248;47.320;15.998;2023-04-19T12:45:05;17.83;58.45
69938;DHT22;57248;47.320;15.998;2023-04-19T12:47:31;17.06;58.19
69938;DHT22;57248;47.320;15.998;2023-04-19T12:50:03;17.26;58.34
69938;DHT22;57248;47.320;15.998;2023-04-19T12:52:35;17.62;58.18
69938;DHT22;57248;47.320;15.998;2023-04-19T12:55:07;16.71;57.99
69938;DHT22;57248;47.320;15.998;2023-04-19T12:57:40;18.60;54.68
69938;DHT22;57248;47.320;15.998;2023-04-19T13:00:13;20.74;50.96
69938;DHT22;57248;47.320;15.998;2023-04-19T13:02:52;20.77;48.82
69938;DHT22;57248;47.320;15.998;2023-04-19T13:05:24;19.48;51.19
69938;DHT22;57248;47.320;15.998;2023-04-19T13:07:56;21.23;48.34
69938;DHT22;57248;47.320;15.998;2023-04-19T13:10:28;22.79;44.07
69938;DHT22;57248;47.320;15.998;2023-04-19T13:13:00;21.47;45.66
69938;DHT22;57248;47.320;15.998;2023-04-19T13:15:33;20.00;50.01
69938;DHT22;57248;47.320;15.998;2023-04-19T13:18:06;17.98;53.37
69938;DHT22;57248;47.320;15.998;2023-04-19T13:20:38;18.51;55.54
69938;DHT22;57248;47.320;15.998;2023-04-19T13:23:10;17.94;55.85
69938;DHT22;57248;47.320;15.998;2023-04-19T13:25:42;16.72;57.01
69938;DHT22;57248;47.320;15.998;2023-04-19T13:28:14;16.81;58.12
69938;DHT22;57248;47.320;15.998;2023-04-19T13:30:46;15.51;59.07
69938;DHT22;57248;47.320;15.998;2023-04-19T13:33:18;15.59;58.63
69938;DHT22;57248;47.320;15.998;2023-04-19T13:35:50;16.65;55.53
69938;DHT22;57248;47.320;15.998;2023-04-19T13:38:22;17.77;55.11
69938;DHT22;57248;47.320;15.998;2023-04-19T13:40:56;17.04;56.23
69938;DHT22;57248;47.320;15.998;2023-04-19T13:43:28;16.50;57.20
69938;DHT22;57248;47.320;15.998;2023-04-19T13:46:00;16.23;57.80
69938;DHT22;57248;47.320;15.998;2023-04-19T13:48:32;15.34;60.05
69938;DHT22;57248;47.320;15.998;2023-04-19T13:51:05;15.03;61.23
69938;DHT22;57248;47.320;15.998;2023-04-19T13:53:37;14.66;61.95
69938;DHT22;57248;47.320;15.998;2023-04-19T13:56:11;14.52;63.36
69938;DHT22;57248;47.320;15.998;2023-04-19T13:58:51;14.63;62.75
69938;DHT22;57248;47.320;15.998;2023-04-19T14:01:23;15.39;59.98
69938;DHT22;57248;47.320;15.998;2023-04-19T14:04:03;14.55;61.22
69938;DHT22;57248;47.320;15.998;2023-04-19T14:06:28;15.39;61.30
69938;DHT22;57248;47.320;15.998;2023-04-19T14:09:01;15.78;61.18
69938;DHT22;57248;47.320;15.998;2023-04-19T14:11:33;16.24;59.60
69938;DHT22;57248;47.320;15.998;2023-04-19T14:14:06;15.24;60.26
69938;DHT22;57248;47.320;15.998;2023-04-19T14:16:38;14.94;62.00
69938;DHT22;57248;47.320;15.998;2023-04-19T14:19:13;15.28;60.43
69938;DHT22;57248;47.320;15.998;2023-04-19T14:21:46;14.39;61.21
69938;DHT22;57248;47.320;15.998;2023-04-19T14:24:18;14.48;60.43
69938;DHT22;57248;47.320;15.998;2023-04-19T14:26:51;15.12;59.26
69938;DHT22;57248;47.320;15.998;2023-04-19T14:29:24;16.47;55.60
69938;DHT22;57248;47.320;15.998;2023-04-19T14:31:57;16.72;52.20
69938;DHT22;57248;47.320;15.998;2023-04-19T14:34:30;17.66;52.61
69938;DHT22;57248;47.320;15.998;2023-04-19T14:36:56;16.26;53.95
69938;DHT22;57248;47.320;15.998;2023-04-19T14:39:28;15.30;56.22
69938;DHT22;57248;47.320;15.998;2023-04-19T14:41:53;15.48;55.57
69938;DHT22;57248;47.320;15.998;2023-04-19T14:44:25;14.94;57.06
69938;DHT22;57248;47.320;15.998;2023-04-19T14:46:57;14.60;58.90
69938;DHT22;57248;47.320;15.998;2023-04-19T14:49:29;14.32;59.59
69938;DHT22;57248;47.320;15.998;2023-04-19T14:52:03;15.04;57.84
69938;DHT22;57248;47.320;15.998;2023-04-19T14:54:35;14.58;58.68
69938;DHT22;57248;47.320;15.998;2023-04-19T14:57:07;14.43;57.99
69938;DHT22;57248;47.320;15.998;2023-04-19T14:59:46;14.46;59.44
69938;DHT22;57248;47.320;15.998;2023-04-19T15:02:18;13.94;58.61
69938;DHT22;57248;47.320;15.998;2023-04-19T15:04:50;14.04;59.81
69938;DHT22;57248;47.320;15.998;2023-04-19T15:07:24;14.00;59.88
69938;DHT22;57248;47.320;15.998;2023-04-19T15:09:57;13.53;58.90
69938;DHT22;57248;47.320;15.998;2023-04-19T15:12:23;13.33;60.47
69938;DHT22;57248;47.320;15.998;2023-04-19T15:14:55;13.54;60.89
69938;DHT22;57248;47.320;15.998;2023-04-19T15:17:20;13.29;61.42
69938;DHT22;57248;47.320;15.998;2023-04-19T15:19:54;12.92;61.88
69938;DHT22;57248;47.320;15.998;2023-04-19T15:22:27;12.52;63.88
69938;DHT22;57248;47.320;15.998;2023-04-19T15:25:00;12.67;64.23
69938;DHT22;57248;47.320;15.998;2023-04-19T15:27:32;12.69;64.36
69938;DHT22;57248;47.320;15.998;2023-04-19T15:30:05;12.41;64.35
69938;DHT22;57248;47.320;15.998;2023-04-19T15:32:38;12.44;65.12
69938;DHT22;57248;47.320;15.998;2023-04-19T15:35:10;12.21;65.04
69938;DHT22;57248;47.320;15.998;2023-04-19T15:37:42;12.30;64.37
69938;DHT22;57248;47.320;15.998;2023-04-19T15:40:14;12.13;65.25
69938;DHT22;57248;47.320;15.998;2023-04-19T15:42:47;12.17;65.32
69938;DHT22;57248;47.320;15.998;2023-04-19T15:45:19;12.01;65.32
69938;DHT22;57248;47.320;15.998;2023-04-19T15:47:53;12.12;66.09
69938;DHT22;57248;47.320;15.998;2023-04-19T15:50:25;12.23;65.43
69938;DHT22;57248;47.320;15.998;2023-04-19T15:52:58;12.10;64.72
69938;DHT22;57248;47.320;15.998;2023-04-19T15:55:30;12.33;65.04
69938;DHT22;57248;47.320;15.998;2023-04-19T15:58:03;11.93;66.03
69938;DHT22;57248;47.320;15.998;2023-04-19T16:00:36;12.14;64.65
69938;DHT22;57248;47.320;15.998;2023-04-19T16:03:15;12.06;64.98
69938;DHT22;57248;47.320;15.998;2023-04-19T16:05:48;12.23;65.36
69938;DHT22;57248;47.320;15.998;2023-04-19T16:08:23;11.97;65.72
69938;DHT22;57248;47.320;15.998;2023-04-19T16:10:55;11.89;65.94
69938;DHT22;57248;47.320;15.998;2023-04-19T16:13:27;11.71;65.26
69938;DHT22;57248;47.320;15.998;2023-04-19T16:15:59;11.61;65.36